Time;durP1;ratioP1;P1;durP2;ratioP2;P2;SDS_P1;SDS_P2;PMS_P1;PMS_P2;Temp;Humidity;BMP_temperature;BMP_pressure;BME280_temperature;BME280_humidity;BME280_pressure;Samples;Min_cycle;Max_cycle;Signal;HPM_P1;HPM_P2
2022/05/21 00:01:42;;;;;;;16.53;13.20;;;10.60;99.90;9.90;99660;;;;597348;240;24068;-81
2022/05/21 00:04:10;;;;;;;17.93;12.77;;;10.60;99.90;9.80;99657;;;;597520;240;24086;-79
2022/05/21 00:06:40;;;;;;;21.03;12.50;;;10.60;99.90;9.80;99649;;;;598597;240;24065;-79
2022/05/21 00:09:06;;;;;;;15.93;12.20;;;10.60;99.90;9.80;99638;;;;598018;240;24050;-81
2022/05/21 00:11:38;;;;;;;15.47;11.83;;;10.60;99.90;9.90;99636;;;;597258;235;24081;-80
2022/05/21 00:14:03;;;;;;;14.03;11.93;;;10.60;99.90;9.90;99623;;;;596835;240;24100;-82
2022/05/21 00:16:30;;;;;;;25.17;13.80;;;10.60;99.90;10.00;99611;;;;598502;240;24065;-82
2022/05/21 00:18:58;;;;;;;17.10;13.40;;;10.70;99.90;10.00;99618;;;;598552;235;24049;-82
2022/05/21 00:21:26;;;;;;;22.93;13.93;;;10.70;99.90;10.10;99611;;;;598689;235;24054;-80
2022/05/21 00:23:58;;;;;;;17.80;13.53;;;10.80;99.90;10.10;99595;;;;598441;235;24115;-80
2022/05/21 00:26:23;;;;;;;16.03;13.50;;;10.80;99.90;10.20;99589;;;;596951;240;24106;-80
2022/05/21 00:28:50;;;;;;;17.57;13.90;;;10.90;99.90;10.20;99587;;;;598717;238;24075;-78
2022/05/21 00:31:18;;;;;;;21.17;14.37;;;11.00;99.90;10.30;99588;;;;598442;235;24049;-78
2022/05/21 00:33:46;;;;;;;16.60;13.70;;;11.00;99.90;10.40;99579;;;;598568;240;24049;-78
2022/05/21 00:36:14;;;;;;;16.73;13.80;;;11.10;99.90;10.40;99577;;;;598026;235;24052;-79
2022/05/21 00:38:43;;;;;;;19.17;13.77;;;11.20;99.90;10.50;99580;;;;597782;234;24114;-79
2022/05/21 00:41:11;;;;;;;19.07;13.93;;;11.10;99.90;10.50;99576;;;;597689;240;24049;-79
2022/05/21 00:43:53;;;;;;;16.33;13.50;;;11.20;99.90;10.60;99562;;;;597672;236;24027;-80
2022/05/21 00:46:33;;;;;;;20.13;13.43;;;11.30;99.90;10.60;99548;;;;597603;239;24065;-79
2022/05/21 00:49:13;;;;;;;21.30;13.83;;;11.30;99.90;10.70;99541;;;;597377;240;24041;-79
2022/05/21 00:51:46;;;;;;;24.37;13.67;;;11.40;99.90;10.80;99531;;;;597132;240;24074;-79
2022/05/21 00:54:14;;;;;;;16.10;12.47;;;11.50;99.90;10.80;99528;;;;596808;240;24049;-80
2022/05/21 00:56:45;;;;;;;17.20;13.33;;;11.60;99.90;10.80;99522;;;;597283;240;24068;-80
2022/05/21 01:02:01;;;;;;;21.17;13.03;;;11.60;99.90;10.90;99516;;;;597384;240;25132;-81
2022/05/21 01:04:29;;;;;;;19.93;14.40;;;11.60;99.90;11.00;99503;;;;597124;235;24069;-80
2022/05/21 01:06:57;;;;;;;20.20;14.80;;;11.70;99.90;11.10;99500;;;;597069;239;24056;-82
2022/05/21 01:09:25;;;;;;;22.70;14.57;;;11.80;99.90;11.10;99508;;;;597115;235;24064;-81
2022/05/21 01:11:53;;;;;;;17.20;14.67;;;11.80;99.90;11.20;99503;;;;597110;240;24038;-81
2022/05/21 01:14:21;;;;;;;22.73;15.27;;;11.90;99.90;11.20;99495;;;;597312;240;24104;-81
2022/05/21 01:16:48;;;;;;;18.30;15.47;;;12.00;99.90;11.30;99499;;;;597094;240;24031;-81
2022/05/21 01:19:16;;;;;;;21.17;14.60;;;12.00;99.90;11.30;99503;;;;597009;240;24041;-81
2022/05/21 01:21:45;;;;;;;23.40;15.50;;;12.10;99.90;11.40;99495;;;;597297;235;24042;-80
2022/05/21 01:24:13;;;;;;;20.20;15.27;;;12.10;99.90;11.40;99481;;;;597433;235;24038;-80
2022/05/21 01:26:41;;;;;;;19.90;15.40;;;12.10;99.90;11.40;99481;;;;597071;240;24050;-80
2022/05/21 01:29:11;;;;;;;20.77;14.60;;;12.20;99.90;11.40;99483;;;;597006;240;24042;-80
2022/05/21 01:31:37;;;;;;;20.97;14.63;;;12.10;99.90;11.50;99480;;;;595138;240;24034;-80
2022/05/21 01:34:08;;;;;;;22.50;14.90;;;12.20;99.90;11.50;99477;;;;597567;240;24046;-81
2022/05/21 01:36:33;;;;;;;18.20;15.47;;;12.20;99.90;11.50;99478;;;;596776;239;24063;-81
2022/05/21 01:39:01;;;;;;;22.77;15.07;;;12.20;99.90;11.60;99475;;;;597014;240;24091;-81
2022/05/21 01:41:29;;;;;;;18.33;15.17;;;12.30;99.90;11.60;99468;;;;598593;238;24106;-81
2022/05/21 01:46:43;;;;;;;20.20;14.83;;;12.40;99.90;11.70;99458;;;;597998;240;24053;-80
2022/05/21 01:49:11;;;;;;;22.57;15.83;;;12.40;99.90;11.70;99452;;;;597707;240;24050;-81
2022/05/21 01:51:39;;;;;;;21.13;16.00;;;12.40;99.90;11.80;99446;;;;597718;240;24041;-81
2022/05/21 01:54:07;;;;;;;19.57;15.70;;;12.50;99.90;11.80;99449;;;;597782;240;24042;-82
2022/05/21 01:56:35;;;;;;;25.13;15.60;;;12.60;99.90;11.90;99444;;;;597734;236;24042;-81
2022/05/21 01:59:03;;;;;;;19.83;14.10;;;12.50;99.90;11.90;99434;;;;597608;240;24096;-81
2022/05/21 02:01:31;;;;;;;23.10;16.30;;;12.60;99.90;11.90;99430;;;;597544;236;24064;-81
2022/05/21 02:04:00;;;;;;;18.33;15.10;;;12.70;99.90;12.00;99436;;;;597490;240;24053;-81
2022/05/21 02:06:28;;;;;;;20.07;15.30;;;12.70;99.90;12.00;99431;;;;597456;240;24048;-81
2022/05/21 02:08:55;;;;;;;17.10;14.17;;;12.70;99.90;12.00;99418;;;;597483;240;24049;-80
2022/05/21 02:11:24;;;;;;;17.43;13.43;;;12.80;99.90;12.10;99414;;;;597192;240;24026;-81
2022/05/21 02:13:52;;;;;;;22.17;14.93;;;12.70;99.90;12.10;99406;;;;597393;240;24046;-82
2022/05/21 02:16:20;;;;;;;19.43;14.80;;;12.80;99.90;12.20;99412;;;;597277;235;24042;-82
2022/05/21 02:18:48;;;;;;;17.53;14.77;;;12.90;99.90;12.20;99407;;;;597112;240;24070;-81
2022/05/21 02:21:18;;;;;;;19.37;13.67;;;12.90;99.90;12.20;99405;;;;597104;240;24043;-80
2022/05/21 02:23:47;;;;;;;20.57;15.47;;;12.90;99.90;12.20;99397;;;;585479;244;24077;-81
2022/05/21 02:26:15;;;;;;;17.17;13.80;;;12.90;99.90;12.20;99383;;;;596754;240;24043;-82
2022/05/21 02:28:41;;;;;;;21.40;13.43;;;12.90;99.90;12.30;99384;;;;585159;245;24097;-81
2022/05/21 02:31:09;;;;;;;20.67;15.27;;;13.00;99.90;12.30;99373;;;;597110;238;24042;-81
2022/05/21 02:33:37;;;;;;;21.57;15.47;;;13.00;99.90;12.30;99380;;;;597124;239;24054;-79
2022/05/21 02:36:04;;;;;;;18.93;14.03;;;13.00;99.90;12.40;99371;;;;597560;240;24042;-80
2022/05/21 02:41:21;;;;;;;17.70;14.30;;;13.10;99.90;12.40;99367;;;;593208;240;24041;-81
2022/05/21 02:43:46;;;;;;;19.17;14.23;;;13.10;99.90;12.40;99367;;;;596680;235;24070;-81
2022/05/21 02:46:14;;;;;;;22.90;14.70;;;13.10;99.90;12.50;99366;;;;597095;240;24027;-81
2022/05/21 02:48:42;;;;;;;18.10;13.73;;;13.20;99.90;12.50;99355;;;;597061;240;24066;-81
2022/05/21 02:51:10;;;;;;;20.77;14.50;;;13.20;99.90;12.50;99349;;;;596924;238;24116;-81
2022/05/21 02:53:38;;;;;;;23.87;14.80;;;13.20;99.90;12.60;99340;;;;598518;235;24034;-80
2022/05/21 02:56:08;;;;;;;16.83;13.60;;;13.30;99.90;12.60;99346;;;;598182;235;24060;-81
2022/05/21 02:58:36;;;;;;;17.57;13.57;;;13.20;99.90;12.60;99341;;;;597894;235;24030;-81
2022/05/21 03:01:05;;;;;;;18.67;14.77;;;13.30;99.90;12.60;99328;;;;597798;240;24094;-80
2022/05/21 03:03:33;;;;;;;16.23;14.00;;;13.30;99.90;12.60;99326;;;;597656;235;24042;-81
2022/05/21 03:06:01;;;;;;;18.33;13.97;;;13.30;99.90;12.60;99312;;;;597693;240;24034;-81
2022/05/21 03:11:14;;;;;;;19.80;13.53;;;13.30;99.90;12.70;99315;;;;597360;240;24038;-80
2022/05/21 03:13:42;;;;;;;15.53;13.27;;;13.30;99.90;12.70;99309;;;;597369;240;24088;-82
2022/05/21 03:16:11;;;;;;;16.20;12.87;;;13.40;99.90;12.70;99299;;;;597381;240;24054;-80
2022/05/21 03:18:39;;;;;;;15.53;13.57;;;13.30;99.90;12.70;99282;;;;597348;240;24064;-81
2022/05/21 03:21:07;;;;;;;19.37;13.30;;;13.40;99.90;12.70;99269;;;;597383;235;24029;-81
2022/05/21 03:23:35;;;;;;;18.43;14.00;;;13.40;99.90;12.70;99259;;;;597389;240;24034;-80
2022/05/21 03:26:03;;;;;;;18.40;13.90;;;13.40;99.90;12.70;99254;;;;597420;236;24045;-80
2022/05/21 03:28:31;;;;;;;18.97;14.20;;;13.40;99.90;12.80;99247;;;;597251;235;24034;-80
2022/05/21 03:30:59;;;;;;;17.73;14.43;;;13.40;99.90;12.80;99229;;;;597242;240;24042;-81
2022/05/21 03:33:27;;;;;;;19.57;14.47;;;13.50;99.90;12.80;99221;;;;597264;240;24054;-81
2022/05/21 03:35:55;;;;;;;19.90;13.83;;;13.40;99.90;12.80;99213;;;;597691;240;24049;-80
2022/05/21 03:38:23;;;;;;;16.73;13.70;;;13.40;99.90;12.70;99222;;;;597357;240;24126;-80
2022/05/21 03:40:51;;;;;;;16.63;13.20;;;13.40;99.90;12.70;99221;;;;597090;240;24046;-81
2022/05/21 03:43:18;;;;;;;19.43;14.97;;;13.40;99.90;12.70;99215;;;;597087;240;24116;-80
2022/05/21 03:45:49;;;;;;;18.30;13.90;;;13.30;99.90;12.70;99212;;;;597103;235;24091;-80
2022/05/21 03:48:15;;;;;;;19.40;14.57;;;13.30;99.90;12.60;99192;;;;597001;240;24038;-80
2022/05/21 03:50:43;;;;;;;19.40;14.57;;;13.30;99.90;12.60;99195;;;;596997;240;24128;-81
2022/05/21 03:53:13;;;;;;;18.80;14.97;;;13.20;99.90;12.50;99185;;;;597087;240;24056;-78
2022/05/21 03:55:39;;;;;;;22.20;15.60;;;13.20;99.90;12.50;99177;;;;597050;240;24026;-80
2022/05/21 03:58:07;;;;;;;22.53;14.83;;;13.20;99.90;12.50;99172;;;;597269;236;24042;-79
2022/05/21 04:00:38;;;;;;;19.13;15.80;;;13.20;99.90;12.60;99179;;;;598272;235;24053;-79
2022/05/21 04:03:03;;;;;;;24.07;16.63;;;13.20;99.90;12.60;99165;;;;598740;238;24071;-81
2022/05/21 04:05:31;;;;;;;21.53;15.97;;;13.30;99.90;12.60;99169;;;;599391;235;24045;-81
2022/05/21 04:08:02;;;;;;;23.17;17.73;;;13.30;99.90;12.70;99166;;;;598337;235;24029;-80
2022/05/21 04:10:27;;;;;;;22.40;16.83;;;13.40;99.90;12.90;99163;;;;597759;240;24044;-80
2022/05/21 04:12:59;;;;;;;19.57;15.70;;;13.70;99.90;13.10;99168;;;;597763;235;24063;-81
2022/05/21 04:15:25;;;;;;;24.02;21.35;;;13.70;99.90;13.20;99166;;;;591916;240;35071;-81
2022/05/21 04:17:51;;;;;;;17.87;15.97;;;13.90;99.90;13.30;99170;;;;597525;235;24040;-81
2022/05/21 04:20:21;;;;;;;21.47;17.17;;;14.00;99.90;13.30;99165;;;;597669;235;24042;-80
2022/05/21 04:22:48;;;;;;;20.87;16.23;;;14.00;99.90;13.30;99190;;;;597235;239;24058;-80
2022/05/21 04:25:16;;;;;;;18.13;15.87;;;14.00;99.90;13.20;99227;;;;597904;240;24038;-81
2022/05/21 04:27:43;;;;;;;19.57;14.07;;;14.00;99.90;13.20;99189;;;;597521;235;24051;-81
2022/05/21 04:30:15;;;;;;;25.73;15.57;;;13.90;99.90;13.10;99157;;;;597738;240;24045;-80
2022/05/21 04:32:42;;;;;;;21.80;15.67;;;13.80;99.90;12.90;99159;;;;598012;240;24049;-80
2022/05/21 04:35:10;;;;;;;26.93;17.10;;;13.60;99.90;12.70;99160;;;;597723;240;24046;-81
2022/05/21 04:37:41;;;;;;;23.40;17.60;;;13.40;99.90;12.60;99154;;;;598488;240;24047;-80
2022/05/21 04:40:06;;;;;;;24.07;18.73;;;13.30;99.90;12.60;99166;;;;597614;240;24053;-81
2022/05/21 04:42:35;;;;;;;28.87;19.23;;;13.10;99.90;12.50;99174;;;;598067;240;24057;-81
2022/05/21 04:45:03;;;;;;;27.97;19.70;;;13.10;99.90;12.50;99174;;;;597971;235;24034;-82
2022/05/21 04:47:30;;;;;;;29.90;20.70;;;13.10;99.90;12.40;99162;;;;598034;240;24047;-82
2022/05/21 04:49:58;;;;;;;30.37;20.87;;;13.00;99.90;12.40;99166;;;;598317;236;24066;-82
2022/05/21 04:52:26;;;;;;;32.37;20.97;;;13.00;99.90;12.40;99159;;;;598175;240;24068;-81
2022/05/21 04:54:57;;;;;;;38.03;21.90;;;12.90;99.90;12.30;99155;;;;598235;235;24066;-82
2022/05/21 04:57:22;;;;;;;33.90;21.77;;;12.90;99.90;12.30;99146;;;;598159;240;24026;-81
2022/05/21 04:59:51;;;;;;;32.67;21.30;;;12.90;99.90;12.30;99147;;;;598602;240;24042;-82
2022/05/21 05:02:18;;;;;;;32.03;21.93;;;12.90;99.90;12.30;99128;;;;597888;240;24055;-81
2022/05/21 05:04:50;;;;;;;33.57;22.33;;;12.90;99.90;12.30;99121;;;;597497;235;24034;-82
2022/05/21 05:07:14;;;;;;;50.93;24.30;;;12.90;99.90;12.30;99119;;;;597235;240;24054;-81
2022/05/21 05:09:46;;;;;;;40.10;23.93;;;12.90;99.90;12.30;99114;;;;597251;240;24038;-82
2022/05/21 05:12:11;;;;;;;29.60;22.10;;;12.90;99.90;12.30;99121;;;;597448;240;24039;-82
2022/05/21 05:14:39;;;;;;;35.83;22.17;;;12.80;99.90;12.30;99109;;;;598979;239;24040;-81
2022/05/21 05:17:09;;;;;;;35.40;21.00;;;12.90;99.90;12.30;99100;;;;599914;235;24077;-81
2022/05/21 05:19:35;;;;;;;32.33;22.17;;;12.80;99.90;12.30;99099;;;;598818;240;24057;-81
2022/05/21 05:22:03;;;;;;;36.47;22.50;;;12.80;99.90;12.20;99094;;;;598224;240;24041;-81
2022/05/21 05:24:35;;;;;;;35.53;22.07;;;12.80;99.90;12.20;99091;;;;598419;235;24018;-81
2022/05/21 05:26:59;;;;;;;33.60;22.70;;;12.80;99.90;12.20;99085;;;;598896;235;24035;-82
2022/05/21 05:29:27;;;;;;;37.90;23.67;;;12.80;99.90;12.20;99089;;;;599154;240;24073;-82
2022/05/21 05:31:58;;;;;;;36.53;22.33;;;12.80;99.90;12.20;99086;;;;599362;240;24080;-82
2022/05/21 05:34:22;;;;;;;29.33;20.93;;;12.80;99.90;12.20;99082;;;;598709;240;24048;-81
2022/05/21 05:36:51;;;;;;;32.80;22.60;;;12.80;99.90;12.20;99084;;;;599045;235;24004;-82
2022/05/21 05:39:29;;;;;;;36.20;23.33;;;12.80;99.90;12.30;99083;;;;599182;240;24115;-82
2022/05/21 05:41:46;;;;;;;36.07;23.73;;;12.90;99.90;12.30;99079;;;;596762;240;24098;-82
2022/05/21 05:44:14;;;;;;;39.83;26.03;;;12.90;99.90;12.30;99071;;;;598826;240;24081;-82
2022/05/21 05:46:43;;;;;;;38.03;23.03;;;12.90;99.90;12.30;99061;;;;597975;240;24060;-82
2022/05/21 05:49:11;;;;;;;34.07;21.77;;;12.90;99.90;12.30;99058;;;;598210;240;24045;-82
2022/05/21 05:51:42;;;;;;;34.33;21.30;;;12.90;99.90;12.30;99061;;;;597646;236;24042;-83
2022/05/21 05:54:07;;;;;;;37.20;22.17;;;12.90;99.90;12.30;99058;;;;596754;240;24081;-82
2022/05/21 05:56:35;;;;;;;33.40;22.53;;;12.90;99.90;12.30;99051;;;;597336;240;24080;-82
2022/05/21 06:02:57;;;;;;;36.43;23.57;;;12.90;99.90;12.30;99040;;;;597400;240;24091;-82
2022/05/21 06:04:17;;;;;;;38.67;24.00;;;12.90;99.90;12.30;99034;;;;595058;240;24066;-81
2022/05/21 06:06:45;;;;;;;36.00;23.20;;;12.90;99.90;12.30;99033;;;;597322;235;24117;-81
2022/05/21 06:09:13;;;;;;;38.33;23.23;;;12.90;99.90;12.40;99030;;;;597347;235;24041;-81
2022/05/21 06:11:41;;;;;;;39.43;22.73;;;12.90;99.90;12.40;99029;;;;597312;240;24050;-81
2022/05/21 06:14:09;;;;;;;38.23;25.43;;;13.00;99.90;12.40;99027;;;;597304;235;24045;-81
2022/05/21 06:16:37;;;;;;;34.43;23.90;;;13.00;99.90;12.50;99029;;;;597399;240;24031;-81
2022/05/21 06:19:06;;;;;;;42.20;25.67;;;13.10;99.90;12.60;99025;;;;598240;240;24069;-81
2022/05/21 06:21:34;;;;;;;42.33;25.23;;;13.20;99.90;12.60;99022;;;;598187;240;24055;-81
2022/05/21 06:24:02;;;;;;;42.77;24.50;;;13.20;99.90;12.70;99021;;;;598310;235;24034;-81
2022/05/21 06:26:29;;;;;;;40.27;26.07;;;13.30;99.90;12.80;99026;;;;598923;236;24052;-81
2022/05/21 06:28:58;;;;;;;43.93;23.57;;;13.50;99.90;13.00;99015;;;;599539;240;24052;-81
2022/05/21 06:31:30;;;;;;;45.80;24.63;;;13.50;99.90;13.10;99021;;;;599226;240;24025;-81
2022/05/21 06:33:54;;;;;;;88.37;56.57;;;13.70;99.90;13.20;99022;;;;598917;240;24048;-81
2022/05/21 06:36:23;;;;;;;78.40;54.03;;;13.80;99.90;13.20;99015;;;;598849;240;24038;-81
2022/05/21 06:38:50;;;;;;;65.10;39.80;;;13.80;99.90;13.20;99019;;;;598566;239;24062;-81
2022/05/21 06:41:18;;;;;;;44.87;29.27;;;13.80;99.90;13.20;99018;;;;599101;240;24087;-81
2022/05/21 06:43:45;;;;;;;37.67;25.77;;;13.80;99.90;13.20;99011;;;;598512;240;24080;-81
2022/05/21 06:46:13;;;;;;;40.50;25.70;;;13.80;99.90;13.20;99011;;;;597575;235;24090;-81
2022/05/21 06:48:44;;;;;;;41.07;26.20;;;13.80;99.90;13.20;99008;;;;597589;240;24138;-81
2022/05/21 06:51:10;;;;;;;39.13;26.57;;;13.80;99.90;13.20;99003;;;;597139;235;24038;-81
2022/05/21 06:53:38;;;;;;;39.07;25.50;;;13.80;99.90;13.20;99006;;;;598136;240;24051;-81
2022/05/21 06:56:11;;;;;;;42.07;24.17;;;13.80;99.90;13.20;99000;;;;598649;235;24096;-81
2022/05/21 06:58:39;;;;;;;32.17;23.07;;;13.80;99.90;13.20;99003;;;;573203;245;24112;-81
2022/05/21 07:01:04;;;;;;;32.97;24.57;;;13.80;99.90;13.20;99006;;;;583143;246;24043;-81
2022/05/21 07:03:35;;;;;;;30.70;21.50;;;13.90;99.90;13.20;99000;;;;570218;249;24099;-80
2022/05/21 07:08:46;;;;;;;30.83;21.80;;;13.90;99.90;13.30;98998;;;;577193;248;24150;-81
2022/05/21 07:11:17;;;;;;;25.97;19.50;;;13.90;99.90;13.40;99004;;;;578450;244;24066;-81
2022/05/21 07:13:49;;;;;;;25.50;18.20;;;14.00;99.90;13.50;98998;;;;578834;245;24111;-81
2022/05/21 07:16:17;;;;;;;18.70;15.80;;;14.10;99.90;13.70;98999;;;;581924;244;24089;-81
2022/05/21 07:18:44;;;;;;;13.90;12.40;;;14.30;99.90;13.80;99002;;;;584724;245;24077;-81
2022/05/21 07:21:10;;;;;;;12.63;11.37;;;14.40;99.90;13.90;98998;;;;581633;245;24052;-80
2022/05/21 07:23:37;;;;;;;9.17;8.27;;;14.60;99.90;14.00;98995;;;;597272;239;24096;-81
2022/05/21 07:26:05;;;;;;;5.97;5.47;;;14.70;99.90;14.00;99006;;;;597973;238;24027;-82
2022/05/21 07:28:32;;;;;;;4.07;3.23;;;14.70;99.90;13.90;98983;;;;597534;238;24061;-82
2022/05/21 07:31:00;;;;;;;3.97;2.50;;;14.70;99.90;14.00;98989;;;;597997;235;24030;-81
2022/05/21 07:33:28;;;;;;;1.93;1.80;;;14.70;99.90;14.10;99005;;;;597517;235;24044;-81
2022/05/21 07:35:59;;;;;;;1.93;1.80;;;14.80;99.90;14.10;99002;;;;597860;235;24054;-81
2022/05/21 07:38:24;;;;;;;1.73;1.70;;;14.80;99.90;14.10;99012;;;;598228;235;24034;-81
2022/05/21 07:40:53;;;;;;;2.13;2.00;;;14.90;99.90;14.10;99019;;;;599248;238;24045;-83
2022/05/21 07:43:27;;;;;;;2.20;2.10;;;14.80;99.90;13.90;99020;;;;599315;235;24058;-82
2022/05/21 07:45:51;;;;;;;2.03;1.93;;;14.70;99.90;13.80;99030;;;;598416;240;24049;-83
2022/05/21 07:48:19;;;;;;;4.80;2.60;;;14.60;99.90;13.70;99018;;;;599190;238;24031;-82
2022/05/21 07:50:49;;;;;;;2.60;2.40;;;14.50;99.90;13.60;99020;;;;598972;238;24077;-82
2022/05/21 07:53:24;;;;;;;2.73;2.53;;;14.40;99.90;13.50;99027;;;;598180;235;24119;-82
2022/05/21 07:55:49;;;;;;;3.77;3.43;;;14.30;99.90;13.40;99026;;;;598822;240;24037;-81
2022/05/21 07:58:17;;;;;;;3.33;3.13;;;14.20;99.90;13.20;99020;;;;598249;238;24061;-81
2022/05/21 08:00:49;;;;;;;4.10;3.27;;;14.00;99.90;13.10;99013;;;;598155;238;24118;-82
2022/05/21 08:03:17;;;;;;;4.40;2.73;;;13.90;99.90;13.00;99027;;;;597656;240;24045;-82
2022/05/21 08:05:45;;;;;;;3.17;2.97;;;13.70;99.90;12.90;99016;;;;597954;240;24050;-81
2022/05/21 08:08:09;;;;;;;3.03;2.83;;;13.60;99.90;12.80;99020;;;;598623;240;24014;-85
2022/05/21 08:10:37;;;;;;;5.03;2.90;;;13.50;99.90;12.70;99021;;;;598814;235;24065;-80
2022/05/21 08:13:06;;;;;;;2.43;2.30;;;13.40;99.90;12.60;99020;;;;599321;238;24033;-82
2022/05/21 08:15:33;;;;;;;2.27;2.07;;;13.30;99.90;12.50;99028;;;;598765;238;24065;-82
2022/05/21 08:18:05;;;;;;;2.40;2.20;;;13.20;99.90;12.50;99025;;;;598786;240;24226;-82
2022/05/21 08:20:29;;;;;;;1.93;1.83;;;13.20;99.90;12.60;99025;;;;597970;235;24051;-82
2022/05/21 08:28:29;;;;;;;2.40;1.80;;;13.30;99.90;12.80;99029;;;;598469;240;24046;-81
2022/05/21 08:30:58;;;;;;;2.00;1.90;;;13.50;99.90;12.90;99029;;;;598772;235;24096;-81
2022/05/21 08:33:25;;;;;;;1.07;1.07;;;13.50;99.90;12.90;99020;;;;598039;238;24046;-81
2022/05/21 08:35:57;;;;;;;1.30;1.07;;;13.60;99.90;12.90;99031;;;;598450;238;24120;-81
2022/05/21 08:38:21;;;;;;;1.03;1.03;;;13.60;99.90;13.00;99044;;;;597997;240;24034;-80
2022/05/21 08:40:52;;;;;;;0.97;0.93;;;13.70;99.90;13.10;99018;;;;598427;240;24124;-81
2022/05/21 08:43:20;;;;;;;0.60;0.60;;;13.80;99.90;13.10;99060;;;;591010;236;24030;-81
2022/05/21 08:46:15;;;;;;;0.70;0.70;;;13.90;99.90;13.10;99055;;;;598928;236;24034;-81
2022/05/21 08:48:42;;;;;;;1.40;0.43;;;13.90;99.90;13.10;99066;;;;598398;240;24096;-82
2022/05/21 08:51:10;;;;;;;0.50;0.37;;;13.90;99.90;13.10;99077;;;;599392;238;24041;-81
2022/05/21 08:53:37;;;;;;;0.57;0.40;;;13.90;99.90;13.00;99074;;;;598132;235;24062;-81
2022/05/21 08:56:05;;;;;;;0.10;0.10;;;13.90;99.90;13.20;99105;;;;598414;240;24046;-80
2022/05/21 08:58:45;;;;;;;0.30;0.30;;;14.00;99.90;14.00;99121;;;;598743;238;24041;-79
2022/05/21 09:01:13;;;;;;;0.73;0.73;;;14.60;99.90;14.70;99147;;;;599537;235;24042;-81
2022/05/21 09:03:42;;;;;;;0.53;0.53;;;16.10;99.90;15.50;99185;;;;598625;238;24065;-82
2022/05/21 09:06:18;;;;;;;0.70;0.50;;;16.10;99.90;15.30;99198;;;;599799;238;24029;-81
2022/05/21 09:08:55;;;;;;;0.83;0.40;;;16.30;99.90;15.10;99209;;;;599155;238;24084;-82
2022/05/21 09:11:41;;;;;;;0.70;0.70;;;16.10;99.90;14.90;99251;;;;598500;240;24034;-81
2022/05/21 09:14:15;;;;;;;0.63;0.47;;;15.80;99.90;14.30;99264;;;;598226;238;24057;-81
2022/05/21 09:16:54;;;;;;;0.93;0.87;;;15.30;99.90;13.70;99274;;;;598689;238;24041;-80
2022/05/21 09:19:37;;;;;;;0.23;0.20;;;14.60;99.90;13.10;99296;;;;598474;238;24056;-80
2022/05/21 09:22:09;;;;;;;0.37;0.37;;;13.40;99.90;12.50;99326;;;;598262;240;24060;-80
2022/05/21 09:24:45;;;;;;;0.23;0.20;;;13.30;99.90;12.20;99328;;;;598408;240;24085;-80
2022/05/21 09:27:34;;;;;;;0.30;0.30;;;13.00;99.90;12.00;99346;;;;597832;238;24055;-80
2022/05/21 09:30:26;;;;;;;0.27;0.27;;;12.70;99.90;12.00;99360;;;;598084;240;24069;-80
2022/05/21 09:32:56;;;;;;;0.40;0.40;;;12.60;99.90;12.10;99366;;;;593234;240;34811;-81
2022/05/21 09:35:27;;;;;;;3.10;0.20;;;12.70;99.90;12.10;99373;;;;597984;238;24041;-81
2022/05/21 09:37:55;;;;;;;0.40;0.40;;;12.70;99.90;12.30;99376;;;;583351;243;24079;-81
2022/05/21 09:40:38;;;;;;;0.47;0.30;;;12.80;99.90;12.40;99390;;;;600256;239;24029;-81
2022/05/21 09:46:17;;;;;;;1.10;0.30;;;13.40;99.90;13.20;99410;;;;599300;238;24324;-80
2022/05/21 09:48:46;;;;;;;0.20;0.20;;;13.70;99.90;13.70;99427;;;;599790;239;24029;-80
2022/05/21 09:51:31;;;;;;;0.47;0.30;;;14.30;99.90;14.10;99419;;;;597953;238;24011;-82
2022/05/21 09:54:00;;;;;;;0.30;0.30;;;14.90;99.90;14.10;99435;;;;597803;235;24089;-81
2022/05/21 09:56:31;;;;;;;0.20;0.20;;;14.90;99.90;14.00;99454;;;;598274;240;24046;-81
2022/05/21 09:59:13;;;;;;;1.43;0.40;;;14.80;99.90;13.80;99460;;;;597788;235;24059;-81
2022/05/21 10:01:46;;;;;;;0.30;0.30;;;14.60;99.90;13.60;99462;;;;598760;238;24073;-81
2022/05/21 10:04:48;;;;;;;0.70;0.37;;;14.40;99.90;13.60;99461;;;;599324;235;24069;-80
2022/05/21 10:13:12;;;;;;;0.40;0.40;;;15.80;99.90;15.40;99481;;;;598925;240;24077;-81
2022/05/21 10:15:49;;;;;;;0.40;0.37;;;16.10;99.90;15.40;99482;;;;598761;235;24061;-80
2022/05/21 10:18:23;;;;;;;0.50;0.50;;;16.20;99.90;15.10;99500;;;;598484;240;24060;-81
2022/05/21 10:20:54;;;;;;;0.30;0.30;;;16.00;99.90;14.70;99495;;;;598646;240;24065;-80
2022/05/21 10:23:30;;;;;;;0.40;0.40;;;15.60;99.90;14.40;99504;;;;598734;239;24026;-80
2022/05/21 10:26:28;;;;;;;0.97;0.60;;;15.30;99.90;14.20;99500;;;;598233;234;24028;-81
2022/05/21 10:29:20;;;;;;;0.37;0.37;;;15.10;99.90;14.70;99528;;;;599075;238;24101;-80
2022/05/21 10:32:21;;;;;;;0.20;0.20;;;15.40;99.90;15.30;99530;;;;599597;234;24069;-79
2022/05/21 10:34:57;;;;;;;1.13;0.60;;;16.00;99.90;15.40;99532;;;;591086;235;24088;-81
2022/05/21 10:37:27;;;;;;;0.47;0.40;;;16.20;99.90;15.60;99522;;;;591921;243;24020;-80
2022/05/21 10:40:22;;;;;;;0.90;0.57;;;16.30;99.90;15.70;99533;;;;587417;243;24045;-80
2022/05/21 10:43:20;;;;;;;0.40;0.40;;;16.40;99.90;15.50;99540;;;;592039;243;24049;-80
2022/05/21 10:46:09;;;;;;;0.62;0.62;;;16.30;99.90;15.90;99555;;;;586057;243;34811;-80
2022/05/21 10:49:12;;;;;;;1.40;0.53;;;16.50;99.90;16.30;99542;;;;590031;243;24083;-80
2022/05/21 10:52:09;;;;;;;0.67;0.67;;;16.90;99.90;16.70;99566;;;;591800;243;24052;-80
2022/05/21 10:55:06;;;;;;;0.77;0.50;;;17.40;99.90;16.60;99552;;;;591732;243;24046;-81
2022/05/21 10:57:46;;;;;;;2.53;0.40;;;17.40;99.90;16.30;99566;;;;588722;243;24139;-80
2022/05/21 11:00:17;;;;;;;0.60;0.60;;;17.20;99.90;15.80;99565;;;;591061;242;24114;-79
2022/05/21 11:03:27;;;;;;;0.77;0.50;;;16.80;99.90;15.70;99569;;;;591274;243;24044;-79
2022/05/21 11:06:12;;;;;;;1.63;1.10;;;16.60;99.90;15.80;99563;;;;591864;243;24073;-80
2022/05/21 11:08:52;;;;;;;1.50;0.70;;;16.60;99.90;16.20;99578;;;;591669;243;24032;-80
2022/05/21 11:11:26;;;;;;;1.10;0.43;;;16.90;99.90;16.20;99583;;;;590430;243;24037;-82
2022/05/21 11:14:23;;;;;;;0.70;0.70;;;17.00;99.90;16.20;99587;;;;592388;241;24053;-82
2022/05/21 11:17:21;;;;;;;1.57;0.70;;;17.00;99.90;16.60;99602;;;;592316;242;24061;-82
2022/05/21 11:19:52;;;;;;;0.50;0.50;;;17.30;99.90;17.00;99584;;;;590927;242;24040;-81
2022/05/21 11:22:25;;;;;;;1.60;0.40;;;17.60;99.90;16.90;99603;;;;586391;243;24029;-80
2022/05/21 11:24:57;;;;;;;1.80;0.70;;;17.70;99.90;16.80;99601;;;;590631;242;24101;-81
2022/05/21 11:27:39;;;;;;;0.77;0.60;;;17.60;99.90;16.70;99606;;;;591042;242;24030;-80
2022/05/21 11:30:10;;;;;;;0.80;0.30;;;17.50;99.90;16.50;99610;;;;582941;242;24044;-80
2022/05/21 11:38:27;;;;;;;0.43;0.40;;;16.80;99.90;15.90;99625;;;;598296;240;24084;-82
2022/05/21 11:47:09;;;;;;;0.83;0.60;;;16.80;99.90;16.00;99631;;;;597394;241;24074;-80
2022/05/21 11:50:03;;;;;;;0.33;0.33;;;16.70;99.90;16.00;99640;;;;597678;241;24093;-80
2022/05/21 11:52:26;;;;;;;0.53;0.53;;;16.80;99.90;15.90;99647;;;;597636;240;24030;-79
2022/05/21 11:54:54;;;;;;;2.03;0.63;;;16.70;99.90;15.70;99650;;;;592870;242;24053;-79
2022/05/21 11:57:49;;;;;;;2.00;0.70;;;16.60;99.90;15.70;99668;;;;593151;242;24071;-80
2022/05/21 12:00:26;;;;;;;1.97;0.60;;;16.50;99.90;15.50;99659;;;;597834;239;24085;-81
2022/05/21 12:02:54;;;;;;;0.67;0.67;;;16.40;99.90;15.70;99656;;;;597960;240;24079;-81
2022/05/21 12:05:49;;;;;;;0.67;0.67;;;16.40;99.90;15.60;99672;;;;597649;238;24077;-82
2022/05/21 12:08:23;;;;;;;0.57;0.57;;;16.40;99.90;15.30;99668;;;;597204;240;24034;-81